Angelica, New York
Current Conditions -  °F | °C
As of 2:56 AM on Friday 19 Dec 2014 (Local Time) from KELZ Reporting Station
Overcast Overcast  
Wind Chill: 13°   Ceiling: 1100
Heat Index: 25°   Visibility: 10mi
Dew Point: 22°   Wind: 14mph
Humidity: 88%   Direction: 310°NW
Pressure: 30"   Gusts: 21mph
Location:  42.31°N, 78.02°W
Report Text: KELZ 190756Z AUTO 31012G18KT 10SM OVC011 M04/M06 A3000 RMK AO2 FZRAE38 SLP185 P0000 I1001 T10391056
Loading
Personal Weather Stations






























Interactive Weather Map New forecast layout! Learn more

10-Day Weather Forecast

Advertisements
Track Severe Weather on mobile